createdAt,value
2023-03-28T00:01:57.146Z,2.22
2023-03-28T00:04:14.429Z,2.20
2023-03-28T00:06:31.950Z,2.30
2023-03-28T00:08:49.215Z,2.00
2023-03-28T00:11:06.547Z,2.03
2023-03-28T00:13:24.742Z,1.85
2023-03-28T00:15:42.725Z,2.35
2023-03-28T00:18:00.353Z,2.00
2023-03-28T00:20:17.672Z,2.28
2023-03-28T00:22:34.676Z,1.98
2023-03-28T00:24:51.962Z,1.88
2023-03-28T00:27:09.238Z,2.25
2023-03-28T00:29:26.525Z,1.80
2023-03-28T00:31:43.911Z,1.90
2023-03-28T00:34:02.259Z,1.95
2023-03-28T00:36:19.332Z,2.17
2023-03-28T00:38:36.405Z,2.28
2023-03-28T00:40:54.651Z,2.17
2023-03-28T00:43:11.886Z,2.22
2023-03-28T00:45:28.882Z,1.90
2023-03-28T00:47:46.051Z,1.63
2023-03-28T00:50:03.469Z,1.90
2023-03-28T00:52:20.403Z,2.13
2023-03-28T00:54:37.395Z,2.13
2023-03-28T00:56:54.386Z,2.25
2023-03-28T00:59:11.289Z,2.60
2023-03-28T01:01:28.386Z,2.50
2023-03-28T01:03:45.785Z,2.47
2023-03-28T01:06:03.196Z,2.40
2023-03-28T01:08:20.233Z,2.67
2023-03-28T01:10:37.289Z,2.30
2023-03-28T01:12:54.576Z,2.28
2023-03-28T01:15:13.051Z,1.80
2023-03-28T01:17:29.953Z,2.40
2023-03-28T01:19:47.026Z,2.50
2023-03-28T01:22:04.031Z,2.17
2023-03-28T01:24:21.366Z,2.25
2023-03-28T01:26:38.510Z,2.60
2023-03-28T01:28:55.503Z,2.45
2023-03-28T01:31:12.803Z,2.30
2023-03-28T01:33:29.908Z,2.35
2023-03-28T01:35:46.946Z,2.33
2023-03-28T01:38:04.006Z,2.20
2023-03-28T01:40:20.835Z,2.08
2023-03-28T01:42:37.887Z,1.98
2023-03-28T01:44:54.977Z,2.22
2023-03-28T01:47:12.281Z,2.35
2023-03-28T01:49:29.349Z,2.22
2023-03-28T01:51:46.608Z,2.45
2023-03-28T01:54:04.584Z,2.10
2023-03-28T01:56:21.608Z,2.30
2023-03-28T01:58:38.645Z,2.17
2023-03-28T02:00:55.742Z,2.45
2023-03-28T02:03:13.159Z,2.22
2023-03-28T02:05:30.527Z,2.50
2023-03-28T02:07:47.626Z,2.60
2023-03-28T02:10:04.527Z,2.15
2023-03-28T02:12:21.476Z,2.05
2023-03-28T02:14:38.689Z,2.35
2023-03-28T02:16:55.746Z,1.90
2023-03-28T02:19:13.098Z,1.90
2023-03-28T02:21:29.996Z,2.03
2023-03-28T02:23:46.997Z,2.17
2023-03-28T02:26:05.077Z,2.50
2023-03-28T02:28:23.412Z,2.28
2023-03-28T02:30:40.693Z,2.38
2023-03-28T02:32:58.014Z,2.10
2023-03-28T02:35:15.283Z,2.30
2023-03-28T02:37:33.552Z,2.20
2023-03-28T02:39:50.619Z,2.25
2023-03-28T02:42:07.605Z,2.38
2023-03-28T02:44:27.192Z,2.88
2023-03-28T02:46:44.333Z,2.60
2023-03-28T02:49:01.642Z,2.78
2023-03-28T02:51:18.642Z,2.45
2023-03-28T02:53:36.831Z,2.42
2023-03-28T02:55:54.154Z,2.22
2023-03-28T02:58:11.576Z,2.60
2023-03-28T03:00:30.556Z,2.95
2023-03-28T03:02:47.509Z,2.80
2023-03-28T03:05:04.850Z,2.40
2023-03-28T03:07:21.846Z,2.35
2023-03-28T03:09:38.822Z,2.72
2023-03-28T03:11:55.753Z,2.60
2023-03-28T03:14:12.816Z,2.67
2023-03-28T03:16:30.081Z,2.58
2023-03-28T03:18:47.029Z,2.30
2023-03-28T03:21:04.319Z,2.40
2023-03-28T03:23:21.674Z,2.70
2023-03-28T03:25:38.980Z,2.47
2023-03-28T03:27:56.190Z,2.72
2023-03-28T03:30:13.190Z,2.60
2023-03-28T03:32:31.314Z,2.63
2023-03-28T03:34:48.328Z,3.45
2023-03-28T03:37:05.599Z,4.10
2023-03-28T03:39:23.798Z,2.83
2023-03-28T03:41:41.018Z,2.58
2023-03-28T03:43:58.364Z,2.35
2023-03-28T03:46:15.471Z,2.63
2023-03-28T03:48:32.526Z,2.67
2023-03-28T03:50:49.592Z,3.58
2023-03-28T03:53:06.579Z,3.22
2023-03-28T03:55:23.892Z,3.20
2023-03-28T03:57:41.161Z,3.70
2023-03-28T03:59:58.196Z,3.38
2023-03-28T04:02:15.239Z,3.22
2023-03-28T04:04:32.293Z,3.00
2023-03-28T04:06:49.387Z,3.10
2023-03-28T04:09:06.707Z,3.00
2023-03-28T04:11:23.770Z,2.65
2023-03-28T04:13:40.962Z,2.97
2023-03-28T04:15:58.089Z,2.33
2023-03-28T04:18:15.580Z,2.67
2023-03-28T04:20:32.659Z,2.47
2023-03-28T04:22:49.719Z,2.80
2023-03-28T04:25:06.638Z,2.63
2023-03-28T04:27:23.681Z,2.90
2023-03-28T04:29:40.717Z,2.70
2023-03-28T04:31:57.773Z,2.53
2023-03-28T04:34:15.973Z,2.75
2023-03-28T04:36:33.052Z,2.60
2023-03-28T04:38:50.002Z,2.85
2023-03-28T04:41:06.989Z,2.97
2023-03-28T04:43:24.004Z,2.38
2023-03-28T04:45:42.284Z,2.92
2023-03-28T04:47:59.196Z,3.00
2023-03-28T04:50:16.491Z,2.83
2023-03-28T04:52:34.482Z,2.50
2023-03-28T04:54:51.409Z,2.80
2023-03-28T04:57:08.391Z,2.50
2023-03-28T04:59:25.444Z,2.58
2023-03-28T05:01:42.476Z,2.88
2023-03-28T05:03:59.831Z,2.88
2023-03-28T05:06:16.766Z,2.42
2023-03-28T05:08:33.836Z,2.83
2023-03-28T05:10:50.826Z,2.47
2023-03-28T05:13:08.142Z,2.90
2023-03-28T05:15:25.371Z,2.55
2023-03-28T05:17:42.720Z,2.90
2023-03-28T05:19:59.758Z,2.70
2023-03-28T05:22:17.824Z,2.58
2023-03-28T05:24:36.865Z,2.60
2023-03-28T05:26:54.066Z,2.33
2023-03-28T05:29:11.130Z,2.70
2023-03-28T05:31:28.187Z,3.10
2023-03-28T05:33:46.462Z,2.97
2023-03-28T05:36:03.515Z,3.50
2023-03-28T05:38:20.610Z,3.53
2023-03-28T05:40:37.701Z,3.42
2023-03-28T05:42:54.587Z,3.67
2023-03-28T05:45:11.617Z,3.50
2023-03-28T05:47:28.924Z,3.70
2023-03-28T05:49:47.290Z,3.60
2023-03-28T05:52:04.557Z,3.78
2023-03-28T05:54:23.351Z,3.35
2023-03-28T05:56:40.448Z,3.63
2023-03-28T05:58:57.799Z,4.47
2023-03-28T06:01:14.785Z,4.85
2023-03-28T06:03:31.938Z,3.80
2023-03-28T06:05:49.274Z,3.08
2023-03-28T06:08:06.282Z,3.90
2023-03-28T06:10:23.287Z,3.35
2023-03-28T06:12:40.231Z,3.83
2023-03-28T06:14:57.470Z,3.58
2023-03-28T06:17:14.747Z,3.67
2023-03-28T06:19:32.027Z,3.58
2023-03-28T06:21:49.051Z,3.45
2023-03-28T06:24:06.088Z,3.88
2023-03-28T06:26:23.149Z,3.97
2023-03-28T06:28:40.414Z,4.30
2023-03-28T06:30:58.657Z,4.28
2023-03-28T06:33:16.007Z,4.13
2023-03-28T06:35:33.085Z,4.50
2023-03-28T06:37:50.299Z,4.78
2023-03-28T06:40:07.632Z,4.40
2023-03-28T06:42:25.823Z,4.30
2023-03-28T06:44:42.924Z,4.40
2023-03-28T06:46:59.977Z,3.90
2023-03-28T06:49:18.040Z,3.72
2023-03-28T06:51:35.239Z,3.30
2023-03-28T06:53:52.493Z,3.17
2023-03-28T06:56:09.703Z,3.00
2023-03-28T06:58:26.720Z,2.78
2023-03-28T07:00:43.944Z,3.22
2023-03-28T07:03:01.348Z,3.03
2023-03-28T07:05:18.419Z,2.75
2023-03-28T07:07:35.390Z,2.90
2023-03-28T07:09:53.761Z,2.78
2023-03-28T07:12:10.821Z,2.97
2023-03-28T07:14:27.862Z,2.80
2023-03-28T07:16:45.178Z,3.00
2023-03-28T07:19:02.265Z,3.03
2023-03-28T07:21:19.367Z,3.13
2023-03-28T07:23:36.699Z,3.35
2023-03-28T07:25:54.626Z,3.58
2023-03-28T07:28:11.622Z,3.80
2023-03-28T07:30:28.745Z,3.60
2023-03-28T07:35:05.701Z,3.28
2023-03-28T07:37:22.732Z,3.65
2023-03-28T07:39:39.754Z,3.65
2023-03-28T07:41:57.012Z,3.42
2023-03-28T07:44:14.308Z,3.60
2023-03-28T07:46:31.218Z,4.35
2023-03-28T07:48:48.522Z,4.03
2023-03-28T07:51:05.509Z,3.17
2023-03-28T07:53:22.554Z,3.33
2023-03-28T07:57:59.812Z,3.80
2023-03-28T08:00:16.750Z,3.50
2023-03-28T08:02:33.855Z,3.75
2023-03-28T08:04:51.819Z,4.10
2023-03-28T08:07:08.817Z,4.30
2023-03-28T08:09:26.037Z,4.78
2023-03-28T08:11:43.319Z,4.15
2023-03-28T08:14:00.321Z,4.50
2023-03-28T08:16:17.662Z,3.92
2023-03-28T08:18:34.722Z,4.22
2023-03-28T08:20:51.665Z,4.22
2023-03-28T08:23:09.003Z,3.47
2023-03-28T08:25:26.365Z,3.42
2023-03-28T08:27:43.607Z,3.55
2023-03-28T08:30:00.618Z,3.05
2023-03-28T08:32:17.580Z,3.78
2023-03-28T08:34:34.696Z,3.53
2023-03-28T08:36:52.644Z,2.97
2023-03-28T08:39:09.975Z,2.58
2023-03-28T08:41:27.002Z,2.60
2023-03-28T08:43:45.018Z,2.35
2023-03-28T08:46:03.076Z,2.45
2023-03-28T08:48:20.704Z,2.30
2023-03-28T08:50:37.652Z,2.83
2023-03-28T08:52:54.918Z,2.05
2023-03-28T08:55:12.073Z,2.00
2023-03-28T08:57:29.022Z,1.85
2023-03-28T08:59:46.041Z,2.20
2023-03-28T09:02:03.056Z,2.05
2023-03-28T09:04:21.064Z,1.50
2023-03-28T09:06:38.175Z,1.58
2023-03-28T09:08:55.395Z,1.92
2023-03-28T09:11:12.471Z,1.63
2023-03-28T09:13:29.332Z,1.90
2023-03-28T09:15:46.602Z,1.77
2023-03-28T09:18:03.954Z,1.60
2023-03-28T09:20:21.279Z,1.77
2023-03-28T09:22:39.128Z,1.77
2023-03-28T09:24:56.198Z,2.15
2023-03-28T09:27:13.226Z,5.10
2023-03-28T09:29:30.314Z,3.45
2023-03-28T09:31:47.360Z,2.10
2023-03-28T09:34:04.374Z,1.60
2023-03-28T09:36:21.380Z,5.93
2023-03-28T09:38:38.722Z,12.80
2023-03-28T09:40:55.797Z,16.73
2023-03-28T09:43:13.767Z,9.45
2023-03-28T09:45:32.083Z,5.05
2023-03-28T09:47:49.292Z,2.38
2023-03-28T09:50:16.242Z,1.42
2023-03-28T09:52:33.184Z,1.60
2023-03-28T09:54:50.100Z,2.60
2023-03-28T09:57:07.421Z,2.17
2023-03-28T09:59:26.231Z,1.95
2023-03-28T10:01:45.552Z,3.70
2023-03-28T10:04:02.622Z,1.63
2023-03-28T10:06:20.964Z,2.28
2023-03-28T10:08:37.851Z,1.77
2023-03-28T10:10:55.037Z,1.70
2023-03-28T10:13:12.077Z,2.47
2023-03-28T10:15:29.153Z,2.95
2023-03-28T10:17:46.191Z,2.03
2023-03-28T10:20:03.525Z,2.13
2023-03-28T10:22:20.537Z,4.88
2023-03-28T10:24:37.863Z,2.40
2023-03-28T10:26:55.100Z,2.80
2023-03-28T10:29:12.173Z,1.90
2023-03-28T10:31:29.529Z,1.80
2023-03-28T10:33:46.778Z,1.73
2023-03-28T10:36:04.149Z,1.98
2023-03-28T10:38:21.183Z,2.47
2023-03-28T10:40:38.579Z,1.85
2023-03-28T10:42:55.634Z,2.35
2023-03-28T10:45:12.582Z,2.03
2023-03-28T10:47:30.650Z,6.10
2023-03-28T10:49:47.667Z,4.18
2023-03-28T10:52:05.006Z,2.47
2023-03-28T10:54:22.260Z,2.50
2023-03-28T10:56:39.342Z,3.33
2023-03-28T10:58:56.282Z,2.20
2023-03-28T11:01:13.317Z,2.20
2023-03-28T11:03:30.472Z,2.78
2023-03-28T11:05:54.928Z,2.40
2023-03-28T11:08:19.067Z,1.90
2023-03-28T11:10:36.368Z,6.20
2023-03-28T11:12:56.113Z,6.68
2023-03-28T11:15:14.216Z,7.13
2023-03-28T11:17:31.275Z,16.95
2023-03-28T11:19:48.561Z,9.57
2023-03-28T11:22:05.584Z,12.43
2023-03-28T11:24:22.621Z,4.40
2023-03-28T11:26:39.658Z,2.90
2023-03-28T11:28:57.613Z,2.05
2023-03-28T11:31:15.572Z,1.63
2023-03-28T11:33:32.549Z,1.55
2023-03-28T11:35:49.532Z,2.20
2023-03-28T11:38:06.833Z,2.10
2023-03-28T11:40:23.776Z,1.70
2023-03-28T11:42:40.775Z,3.28
2023-03-28T11:44:58.104Z,3.17
2023-03-28T11:47:15.457Z,2.40
2023-03-28T11:49:32.508Z,2.83
2023-03-28T11:51:49.794Z,2.17
2023-03-28T11:54:06.768Z,2.00
2023-03-28T11:56:24.061Z,1.48
2023-03-28T11:58:42.103Z,1.98
2023-03-28T12:00:59.454Z,2.10
2023-03-28T12:03:17.158Z,1.75
2023-03-28T12:05:34.595Z,1.90
2023-03-28T12:07:51.656Z,1.83
2023-03-28T12:10:08.763Z,2.00
2023-03-28T12:12:25.841Z,1.90
2023-03-28T12:14:42.843Z,1.85
2023-03-28T12:16:59.924Z,1.80
2023-03-28T12:19:17.006Z,1.80
2023-03-28T12:21:34.332Z,1.77
2023-03-28T12:23:51.347Z,1.83
2023-03-28T12:26:08.570Z,1.90
2023-03-28T12:28:25.594Z,1.90
2023-03-28T12:30:42.899Z,2.25
2023-03-28T12:33:00.092Z,2.10
2023-03-28T12:35:18.226Z,1.88
2023-03-28T12:37:35.277Z,1.90
2023-03-28T12:39:54.936Z,1.98
2023-03-28T12:42:12.144Z,2.00
2023-03-28T12:44:30.219Z,2.35
2023-03-28T12:46:47.459Z,2.40
2023-03-28T12:49:04.791Z,2.95
2023-03-28T12:51:21.899Z,2.25
2023-03-28T12:53:39.510Z,2.50
2023-03-28T12:55:57.998Z,2.55
2023-03-28T12:58:15.101Z,2.33
2023-03-28T13:00:32.108Z,2.45
2023-03-28T13:02:49.618Z,2.20
2023-03-28T13:05:06.969Z,2.20
2023-03-28T13:07:24.364Z,2.50
2023-03-28T13:09:41.773Z,2.70
2023-03-28T13:11:59.109Z,2.70
2023-03-28T13:14:16.124Z,2.65
2023-03-28T13:16:33.245Z,2.25
2023-03-28T13:18:51.292Z,2.40
2023-03-28T13:21:08.312Z,2.50
2023-03-28T13:23:25.323Z,2.55
2023-03-28T13:25:42.326Z,2.75
2023-03-28T13:27:59.301Z,2.55
2023-03-28T13:30:16.328Z,2.60
2023-03-28T13:32:33.377Z,2.67
2023-03-28T13:34:51.342Z,2.20
2023-03-28T13:37:08.679Z,2.30
2023-03-28T13:39:26.569Z,2.22
2023-03-28T13:41:43.853Z,1.90
2023-03-28T13:44:01.148Z,2.03
2023-03-28T13:46:19.223Z,2.10
2023-03-28T13:48:36.288Z,1.98
2023-03-28T13:50:53.450Z,2.25
2023-03-28T13:53:11.469Z,2.10
2023-03-28T13:55:28.537Z,2.00
2023-03-28T13:57:45.582Z,1.95
2023-03-28T14:00:02.484Z,1.92
2023-03-28T14:02:19.503Z,2.42
2023-03-28T14:04:36.669Z,2.17
2023-03-28T14:06:53.979Z,2.33
2023-03-28T14:09:11.048Z,2.25
2023-03-28T14:11:28.302Z,2.13
2023-03-28T14:13:45.432Z,1.95
2023-03-28T14:16:02.411Z,2.10
2023-03-28T14:18:19.470Z,2.13
2023-03-28T14:20:37.824Z,1.80
2023-03-28T14:23:00.508Z,1.80
2023-03-28T14:25:19.494Z,2.17
2023-03-28T14:27:36.482Z,2.03
2023-03-28T14:29:53.545Z,1.77
2023-03-28T14:32:10.843Z,2.00
2023-03-28T14:34:28.103Z,1.88
2023-03-28T14:36:45.368Z,2.17
2023-03-28T14:39:02.257Z,2.10
2023-03-28T14:41:19.522Z,1.80
2023-03-28T14:43:37.423Z,1.75
2023-03-28T14:45:54.537Z,1.75
2023-03-28T14:48:11.900Z,1.80
2023-03-28T14:50:29.120Z,1.52
2023-03-28T14:52:46.351Z,1.73
2023-03-28T14:55:03.398Z,1.55
2023-03-28T14:57:20.757Z,1.70
2023-03-28T14:59:38.204Z,1.70
2023-03-28T15:01:55.249Z,1.60
2023-03-28T15:04:12.192Z,1.50
2023-03-28T15:06:29.425Z,1.77
2023-03-28T15:08:46.611Z,1.52
2023-03-28T15:11:03.618Z,1.70
2023-03-28T15:13:22.800Z,1.80
2023-03-28T15:15:40.651Z,1.70
2023-03-28T15:17:57.785Z,1.73
2023-03-28T15:20:14.705Z,2.13
2023-03-28T15:22:31.696Z,1.55
2023-03-28T15:24:48.792Z,1.60
2023-03-28T15:27:05.702Z,1.55
2023-03-28T15:29:22.651Z,1.63
2023-03-28T15:31:39.930Z,1.50
2023-03-28T15:33:56.969Z,1.60
2023-03-28T15:36:13.894Z,1.40
2023-03-28T15:38:30.833Z,1.48
2023-03-28T15:40:48.116Z,1.52
2023-03-28T15:43:05.464Z,1.50
2023-03-28T15:45:22.589Z,1.70
2023-03-28T15:47:39.533Z,1.38
2023-03-28T15:49:56.563Z,1.77
2023-03-28T15:52:13.561Z,1.48
2023-03-28T15:54:32.020Z,1.65
2023-03-28T15:56:49.466Z,1.98
2023-03-28T15:59:06.456Z,1.30
2023-03-28T16:01:23.444Z,1.63
2023-03-28T16:03:40.814Z,1.95
2023-03-28T16:06:07.651Z,1.52
2023-03-28T16:08:27.315Z,1.70
2023-03-28T16:10:45.265Z,1.58
2023-03-28T16:13:02.519Z,1.80
2023-03-28T16:15:19.434Z,1.80
2023-03-28T16:17:36.575Z,1.90
2023-03-28T16:19:53.614Z,1.98
2023-03-28T16:22:10.903Z,1.58
2023-03-28T16:24:29.137Z,2.10
2023-03-28T16:26:46.334Z,1.60
2023-03-28T16:29:03.328Z,1.67
2023-03-28T16:31:20.664Z,2.00
2023-03-28T16:33:38.906Z,2.50
2023-03-28T16:35:56.078Z,2.25
2023-03-28T16:38:13.156Z,2.10
2023-03-28T16:40:30.431Z,1.92
2023-03-28T16:42:47.733Z,1.90
2023-03-28T16:45:04.740Z,2.33
2023-03-28T16:47:21.773Z,2.10
2023-03-28T16:49:39.715Z,2.10
2023-03-28T16:51:57.942Z,2.00
2023-03-28T16:54:14.938Z,1.70
2023-03-28T16:56:32.209Z,1.80
2023-03-28T16:58:49.487Z,1.98
2023-03-28T17:01:06.359Z,1.92
2023-03-28T17:05:41.435Z,1.83
2023-03-28T17:07:58.684Z,1.90
2023-03-28T17:10:15.726Z,2.08
2023-03-28T17:12:33.964Z,1.55
2023-03-28T17:14:50.982Z,1.55
2023-03-28T17:17:07.954Z,1.60
2023-03-28T17:19:25.281Z,1.70
2023-03-28T17:21:42.488Z,1.88
2023-03-28T17:23:59.456Z,1.70
2023-03-28T17:26:16.772Z,1.60
2023-03-28T17:28:33.786Z,1.60
2023-03-28T17:30:51.020Z,1.80
2023-03-28T17:33:08.204Z,2.38
2023-03-28T17:35:25.569Z,1.70
2023-03-28T17:37:42.861Z,2.00
2023-03-28T17:40:00.128Z,2.28
2023-03-28T17:42:17.224Z,1.70
2023-03-28T17:44:34.196Z,1.90
2023-03-28T17:46:51.443Z,2.30
2023-03-28T17:49:08.547Z,2.00
2023-03-28T17:51:25.802Z,1.85
2023-03-28T17:53:43.107Z,1.90
2023-03-28T17:56:00.544Z,2.10
2023-03-28T17:58:17.791Z,1.85
2023-03-28T18:00:34.773Z,2.08
2023-03-28T18:02:51.921Z,1.90
2023-03-28T18:05:09.284Z,2.03
2023-03-28T18:07:26.619Z,2.33
2023-03-28T18:09:43.660Z,2.33
2023-03-28T18:12:00.737Z,2.40
2023-03-28T18:14:18.070Z,2.67
2023-03-28T18:16:35.370Z,2.63
2023-03-28T18:18:53.448Z,3.00
2023-03-28T18:21:10.527Z,3.03
2023-03-28T18:23:27.505Z,2.50
2023-03-28T18:25:44.409Z,2.10
2023-03-28T18:28:01.731Z,1.90
2023-03-28T18:30:19.046Z,1.98
2023-03-28T18:32:36.127Z,1.90
2023-03-28T18:34:53.526Z,1.98
2023-03-28T18:37:10.823Z,2.10
2023-03-28T18:39:28.218Z,1.98
2023-03-28T18:41:45.732Z,2.13
2023-03-28T18:44:02.618Z,2.65
2023-03-28T18:46:19.833Z,2.17
2023-03-28T18:48:36.865Z,2.30
2023-03-28T18:50:53.923Z,2.10
2023-03-28T18:53:10.998Z,1.77
2023-03-28T18:55:28.002Z,1.83
2023-03-28T18:57:45.928Z,1.85
2023-03-28T19:00:03.828Z,1.67
2023-03-28T19:02:20.748Z,1.38
2023-03-28T19:04:38.044Z,2.22
2023-03-28T19:06:56.115Z,1.75
2023-03-28T19:09:13.453Z,1.90
2023-03-28T19:11:32.520Z,2.05
2023-03-28T19:13:49.823Z,2.40
2023-03-28T19:16:07.291Z,2.03
2023-03-28T19:18:24.281Z,2.05
2023-03-28T19:20:42.295Z,1.80
2023-03-28T19:22:59.553Z,1.90
2023-03-28T19:25:16.619Z,1.85
2023-03-28T19:27:33.529Z,1.88
2023-03-28T19:29:50.537Z,2.00
2023-03-28T19:32:07.485Z,2.20
2023-03-28T19:34:24.438Z,2.00
2023-03-28T19:36:41.352Z,1.85
2023-03-28T19:38:58.247Z,2.15
2023-03-28T19:41:15.818Z,2.50
2023-03-28T19:43:32.928Z,2.30
2023-03-28T19:45:49.927Z,2.10
2023-03-28T19:48:07.092Z,2.33
2023-03-28T19:50:24.431Z,3.33
2023-03-28T19:52:41.466Z,3.70
2023-03-28T19:54:58.693Z,2.20
2023-03-28T19:57:15.783Z,2.20
2023-03-28T19:59:33.069Z,2.00
2023-03-28T20:01:50.182Z,2.90
2023-03-28T20:04:07.329Z,2.67
2023-03-28T20:06:24.354Z,2.50
2023-03-28T20:08:41.257Z,2.58
2023-03-28T20:10:58.676Z,3.03
2023-03-28T20:13:16.153Z,3.20
2023-03-28T20:15:33.233Z,2.70
2023-03-28T20:17:51.581Z,2.60
2023-03-28T20:20:08.618Z,2.88
2023-03-28T20:22:25.597Z,3.28
2023-03-28T20:24:42.544Z,2.55
2023-03-28T20:26:59.561Z,2.40
2023-03-28T20:29:16.645Z,2.10
2023-03-28T20:31:33.784Z,2.30
2023-03-28T20:33:50.829Z,2.65
2023-03-28T20:36:08.900Z,2.40
2023-03-28T20:38:26.890Z,2.20
2023-03-28T20:40:43.903Z,2.20
2023-03-28T20:43:01.414Z,2.60
2023-03-28T20:45:18.709Z,3.30
2023-03-28T20:47:35.696Z,3.20
2023-03-28T20:49:52.734Z,2.47
2023-03-28T20:52:09.797Z,2.45
2023-03-28T20:54:26.750Z,2.90
2023-03-28T20:56:43.761Z,3.08
2023-03-28T20:59:00.793Z,3.33
2023-03-28T21:01:18.189Z,3.10
2023-03-28T21:03:35.271Z,3.75
2023-03-28T21:05:52.278Z,4.03
2023-03-28T21:08:09.602Z,3.28
2023-03-28T21:10:26.945Z,3.10
2023-03-28T21:12:44.265Z,3.03
2023-03-28T21:15:01.387Z,2.70
2023-03-28T21:17:19.642Z,2.75
2023-03-28T21:19:37.929Z,2.65
2023-03-28T21:21:54.942Z,2.15
2023-03-28T21:24:11.997Z,2.53
2023-03-28T21:26:29.251Z,2.67
2023-03-28T21:28:46.370Z,2.65
2023-03-28T21:31:04.023Z,2.22
2023-03-28T21:33:21.300Z,2.47
2023-03-28T21:35:38.258Z,2.13
2023-03-28T21:37:55.249Z,2.40
2023-03-28T21:40:12.492Z,2.47
2023-03-28T21:42:29.531Z,2.72
2023-03-28T21:44:46.810Z,2.55
2023-03-28T21:47:04.098Z,2.38
2023-03-28T21:49:21.121Z,2.60
2023-03-28T21:51:38.421Z,2.63
2023-03-28T21:53:55.454Z,2.75
2023-03-28T21:56:12.878Z,2.63
2023-03-28T21:58:31.183Z,2.65
2023-03-28T22:00:48.234Z,2.60
2023-03-28T22:03:06.199Z,2.33
2023-03-28T22:05:29.834Z,2.80
2023-03-28T22:07:47.002Z,2.85
2023-03-28T22:10:04.055Z,2.72
2023-03-28T22:12:21.058Z,2.70
2023-03-28T22:14:38.010Z,2.40
2023-03-28T22:16:55.262Z,2.50
2023-03-28T22:19:12.351Z,2.85
2023-03-28T22:21:29.376Z,2.33
2023-03-28T22:23:47.067Z,2.38
2023-03-28T22:26:05.590Z,2.85
2023-03-28T22:28:22.686Z,2.58
2023-03-28T22:30:39.915Z,2.22
2023-03-28T22:32:58.981Z,2.38
2023-03-28T22:35:17.106Z,2.30
2023-03-28T22:37:34.365Z,2.58
2023-03-28T22:39:51.411Z,2.60
2023-03-28T22:42:08.702Z,2.30
2023-03-28T22:44:25.790Z,2.67
2023-03-28T22:46:42.940Z,2.58
2023-03-28T22:49:00.243Z,2.55
2023-03-28T22:51:17.537Z,2.60
2023-03-28T22:53:34.604Z,2.22
2023-03-28T22:55:51.648Z,2.67
2023-03-28T22:58:08.665Z,2.42
2023-03-28T23:00:25.596Z,2.55
2023-03-28T23:02:42.670Z,2.65
2023-03-28T23:04:59.744Z,2.33
2023-03-28T23:07:17.019Z,2.70
2023-03-28T23:09:34.040Z,2.60
2023-03-28T23:11:51.397Z,2.80
2023-03-28T23:14:09.467Z,2.42
2023-03-28T23:16:26.793Z,2.60
2023-03-28T23:18:44.726Z,2.30
2023-03-28T23:21:02.474Z,2.70
2023-03-28T23:23:19.639Z,2.95
2023-03-28T23:25:36.606Z,2.90
2023-03-28T23:27:53.635Z,2.60
2023-03-28T23:30:11.981Z,2.55
2023-03-28T23:32:29.141Z,2.70
2023-03-28T23:34:46.432Z,2.50
2023-03-28T23:37:03.487Z,2.25
2023-03-28T23:39:20.578Z,2.53
2023-03-28T23:41:37.635Z,2.15
2023-03-28T23:43:54.579Z,2.47
2023-03-28T23:46:11.604Z,2.75
2023-03-28T23:48:28.462Z,2.40
2023-03-28T23:50:45.559Z,2.40
2023-03-28T23:53:03.428Z,2.60
2023-03-28T23:55:20.501Z,2.38
2023-03-28T23:57:38.418Z,2.60
2023-03-28T23:59:56.569Z,2.92
